createdAt,value
2018-03-24T00:18:33.033Z,21.17
2018-03-24T00:39:03.800Z,21.60
2018-03-24T00:41:33.016Z,21.53
2018-03-24T00:44:01.288Z,23.43
2018-03-24T01:04:34.071Z,21.50
2018-03-24T01:07:02.331Z,21.47
2018-03-24T01:09:30.608Z,21.13
2018-03-24T01:30:02.917Z,20.10
2018-03-24T01:32:31.187Z,26.83
2018-03-24T01:34:59.469Z,23.93
2018-03-24T01:55:31.550Z,20.87
2018-03-24T01:57:59.860Z,20.23
2018-03-24T02:00:28.099Z,24.17
2018-03-24T02:02:56.621Z,22.23
2018-03-24T02:05:24.925Z,25.30
2018-03-24T02:07:53.220Z,24.70
2018-03-24T02:28:27.289Z,18.00
2018-03-24T02:30:55.534Z,23.33
2018-03-24T02:33:23.825Z,17.97
2018-03-24T02:35:52.810Z,22.70
2018-03-24T02:38:21.885Z,24.40
2018-03-24T02:40:50.120Z,23.47
2018-03-24T02:43:18.678Z,17.60
2018-03-24T02:45:47.682Z,21.33
2018-03-24T02:48:15.964Z,22.10
2018-03-24T02:50:44.302Z,19.30
2018-03-24T02:53:12.609Z,24.03
2018-03-24T02:55:40.912Z,17.20
2018-03-24T02:58:10.104Z,24.57
2018-03-24T03:00:38.391Z,24.60
2018-03-24T03:03:06.649Z,24.87
2018-03-24T03:05:35.686Z,17.20
2018-03-24T03:08:03.992Z,23.93
2018-03-24T03:10:32.232Z,23.47
2018-03-24T03:13:00.499Z,21.37
2018-03-24T03:33:33.717Z,22.43
2018-03-24T03:36:02.773Z,22.00
2018-03-24T03:38:31.041Z,20.73
2018-03-24T03:40:59.299Z,18.30
2018-03-24T03:43:27.819Z,23.37
2018-03-24T03:45:56.133Z,22.13
2018-03-24T03:48:25.134Z,15.47
2018-03-24T04:08:56.291Z,16.50
2018-03-24T04:11:25.335Z,22.10
2018-03-24T04:13:53.619Z,16.30
2018-03-24T04:16:21.912Z,21.33
2018-03-24T04:18:50.183Z,16.47
2018-03-24T04:21:18.480Z,22.17
2018-03-24T04:23:46.781Z,16.47
2018-03-24T04:26:15.143Z,18.13
2018-03-24T04:46:45.167Z,15.13
2018-03-24T04:49:13.450Z,19.57
2018-03-24T04:51:41.732Z,16.80
2018-03-24T04:54:10.025Z,20.77
2018-03-24T04:56:38.444Z,15.23
2018-03-24T05:17:08.435Z,30.47
2018-03-24T05:19:36.732Z,17.73
2018-03-24T05:22:05.037Z,22.63
2018-03-24T05:24:34.116Z,18.90
2018-03-24T05:27:02.484Z,24.93
2018-03-24T05:29:30.774Z,23.10
2018-03-24T05:31:59.501Z,19.13
2018-03-24T05:34:28.573Z,22.63
2018-03-24T05:36:57.604Z,16.73
2018-03-24T05:39:25.979Z,22.47
2018-03-24T05:41:55.085Z,16.03
2018-03-24T05:44:24.098Z,23.50
2018-03-24T06:04:55.026Z,21.37
2018-03-24T06:07:24.112Z,16.33
2018-03-24T06:09:52.421Z,20.77
2018-03-24T06:12:21.460Z,15.00
2018-03-24T06:14:49.743Z,18.70
2018-03-24T06:17:18.020Z,16.53
2018-03-24T06:37:47.368Z,23.87
2018-03-24T06:58:20.089Z,31.83
2018-03-24T07:00:48.590Z,22.90
2018-03-24T07:03:16.922Z,31.83
2018-03-24T07:23:55.948Z,23.67
2018-03-24T07:26:24.241Z,30.00
2018-03-24T07:28:52.668Z,28.60
2018-03-24T07:31:21.237Z,29.57
2018-03-24T07:33:49.534Z,30.80
2018-03-24T07:36:17.843Z,26.13
2018-03-24T07:38:46.347Z,27.90
2018-03-24T07:41:14.579Z,29.47
2018-03-24T07:43:42.864Z,30.03
2018-03-24T07:46:11.302Z,30.87
2018-03-24T08:06:41.265Z,26.50
2018-03-24T08:09:09.771Z,26.27
2018-03-24T08:29:39.984Z,21.33
2018-03-24T08:32:08.296Z,19.10
2018-03-24T08:34:36.536Z,20.53
2018-03-24T08:37:04.841Z,23.17
2018-03-24T08:39:33.329Z,18.90
2018-03-24T09:00:03.054Z,17.57
2018-03-24T09:20:35.707Z,11.80
2018-03-24T09:41:07.182Z,8.83
2018-03-24T09:43:35.618Z,9.40
2018-03-24T09:46:03.850Z,9.63
2018-03-24T09:48:32.135Z,8.47
2018-03-24T09:51:00.798Z,8.17
2018-03-24T09:53:29.085Z,8.63
2018-03-24T09:55:58.112Z,7.43
2018-03-24T09:58:26.523Z,7.97
2018-03-24T10:00:54.792Z,7.77
2018-03-24T10:03:23.266Z,7.03
2018-03-24T10:05:51.788Z,8.57
2018-03-24T10:08:20.040Z,8.20
2018-03-24T10:10:48.291Z,8.23
2018-03-24T10:13:16.566Z,7.80
2018-03-24T10:15:44.884Z,6.57
2018-03-24T10:18:13.169Z,6.93
2018-03-24T10:20:58.335Z,7.00
2018-03-24T10:23:47.375Z,6.70
2018-03-24T10:26:15.885Z,7.10
2018-03-24T10:28:44.171Z,6.60
2018-03-24T10:31:12.427Z,6.57
2018-03-24T10:33:46.353Z,6.70
2018-03-24T10:36:14.581Z,7.80
2018-03-24T10:56:46.430Z,7.90
2018-03-24T10:59:14.646Z,8.37
2018-03-24T11:19:46.021Z,8.93
2018-03-24T11:22:14.265Z,9.50
2018-03-24T11:24:43.349Z,9.37
2018-03-24T11:27:11.602Z,8.07
2018-03-24T11:29:40.704Z,8.47
2018-03-24T11:32:08.996Z,9.87
2018-03-24T11:34:37.232Z,10.80
2018-03-24T11:37:05.572Z,9.43
2018-03-24T11:39:33.874Z,8.97
2018-03-24T11:42:02.532Z,8.47
2018-03-24T11:44:30.829Z,9.60
2018-03-24T11:46:59.049Z,8.67
2018-03-24T11:49:27.538Z,9.33
2018-03-24T12:09:59.447Z,8.40
2018-03-24T12:12:27.949Z,8.83
2018-03-24T12:33:01.581Z,10.27
2018-03-24T12:35:30.088Z,8.80
2018-03-24T12:37:58.352Z,9.37
2018-03-24T12:40:26.852Z,9.40
2018-03-24T13:01:00.040Z,8.40
2018-03-24T13:21:32.132Z,8.93
2018-03-24T13:24:00.616Z,8.17
2018-03-24T13:44:30.729Z,9.23
2018-03-24T14:05:02.000Z,9.93
2018-03-24T14:07:30.288Z,9.43
2018-03-24T14:28:00.757Z,10.33
2018-03-24T14:30:29.026Z,9.37
2018-03-24T14:32:57.293Z,9.33
2018-03-24T14:35:25.720Z,9.27
2018-03-24T14:55:57.256Z,9.20
2018-03-24T14:58:25.556Z,9.37
2018-03-24T15:00:53.807Z,10.13
2018-03-24T15:03:22.100Z,8.87
2018-03-24T15:05:50.379Z,9.00
2018-03-24T15:08:18.691Z,9.43
2018-03-24T15:10:46.961Z,9.33
2018-03-24T15:13:15.406Z,9.60
2018-03-24T15:15:43.717Z,9.57
2018-03-24T15:18:12.017Z,9.67
2018-03-24T15:38:42.628Z,9.37
2018-03-24T15:59:14.740Z,10.30
2018-03-24T16:01:43.028Z,9.93
2018-03-24T16:04:11.419Z,10.23
2018-03-24T16:06:40.492Z,9.83
2018-03-24T16:27:09.917Z,10.17
2018-03-24T16:47:42.714Z,12.43
2018-03-24T16:50:11.224Z,11.20
2018-03-24T16:52:39.455Z,11.70
2018-03-24T16:55:07.773Z,11.30
2018-03-24T17:15:38.746Z,11.70
2018-03-24T17:18:07.172Z,11.70
2018-03-24T17:38:36.151Z,13.20
2018-03-24T17:41:05.326Z,15.90
2018-03-24T17:43:33.606Z,14.70
2018-03-24T18:04:05.404Z,15.07
2018-03-24T18:24:37.137Z,19.03
2018-03-24T18:45:10.883Z,17.70
2018-03-24T18:47:39.119Z,22.57
2018-03-24T18:50:08.202Z,20.37
2018-03-24T18:52:36.677Z,18.13
2018-03-24T18:55:04.947Z,18.63
2018-03-24T18:57:33.231Z,21.40
2018-03-24T19:00:01.702Z,24.90
2018-03-24T19:02:30.015Z,32.20
2018-03-24T19:04:58.315Z,23.70
2018-03-24T19:07:26.804Z,18.20
2018-03-24T19:27:57.968Z,25.23
2018-03-24T19:48:27.607Z,19.03
2018-03-24T19:50:56.606Z,19.67
2018-03-24T19:53:24.895Z,17.07
2018-03-24T19:55:53.336Z,16.87
2018-03-24T20:16:27.181Z,22.23
2018-03-24T20:18:56.779Z,21.00
2018-03-24T20:21:25.059Z,20.27
2018-03-24T20:23:53.423Z,21.07
2018-03-24T20:26:22.055Z,24.43
2018-03-24T20:28:51.232Z,23.67
2018-03-24T20:31:19.570Z,26.17
2018-03-24T20:33:48.063Z,24.43
2018-03-24T20:36:16.340Z,22.80
2018-03-24T20:38:44.578Z,25.73
2018-03-24T20:41:13.989Z,23.70
2018-03-24T20:43:42.264Z,26.17
2018-03-24T20:46:10.535Z,26.37
2018-03-24T20:48:38.803Z,22.73
2018-03-24T20:51:07.079Z,22.43
2018-03-24T20:53:35.351Z,24.23
2018-03-24T20:56:03.652Z,24.47
2018-03-24T20:58:33.387Z,22.87
2018-03-24T21:01:01.656Z,24.73
2018-03-24T21:03:30.049Z,27.07
2018-03-24T21:05:59.088Z,23.33
2018-03-24T21:08:27.393Z,24.90
2018-03-24T21:10:55.873Z,24.07
2018-03-24T21:31:29.160Z,22.90
2018-03-24T21:33:57.575Z,26.47
2018-03-24T21:36:25.814Z,23.37
2018-03-24T21:56:57.690Z,23.13
2018-03-24T21:59:26.730Z,23.00
2018-03-24T22:01:54.975Z,22.80
2018-03-24T22:04:23.238Z,26.37
2018-03-24T22:06:51.548Z,21.50
2018-03-24T22:09:19.808Z,21.53
2018-03-24T22:11:48.322Z,20.90
2018-03-24T22:14:16.602Z,21.57
2018-03-24T22:16:44.884Z,21.03
2018-03-24T22:37:16.516Z,21.23
2018-03-24T22:39:45.659Z,19.80
2018-03-24T22:42:14.975Z,23.20
2018-03-24T23:02:46.706Z,22.60
2018-03-24T23:05:15.744Z,23.17
2018-03-24T23:07:44.011Z,21.57
2018-03-24T23:10:12.668Z,21.97
2018-03-24T23:12:41.658Z,22.10
2018-03-24T23:15:10.712Z,22.60
2018-03-24T23:17:39.043Z,22.67
2018-03-24T23:38:08.171Z,24.90
2018-03-24T23:40:37.406Z,21.87
2018-03-24T23:43:05.675Z,19.83
2018-03-24T23:45:34.018Z,21.27
2018-03-24T23:48:03.097Z,21.83
2018-03-24T23:50:31.366Z,24.00
2018-03-24T23:52:59.627Z,21.17
2018-03-24T23:55:28.036Z,21.30
2018-03-24T23:57:56.320Z,23.47
